Wendover Airport
KENV : now visible

Airfield :











YOU CAN JOIN US ON...

 
LOGIN :

Register | Disclaimer

   EN    FR    IT 

 









Legend :    VFR   Marginal VFR   IFR   Intensive IFR   Very Intensive IFR
Visi :
Ceiling :
>= 8 km
>= 3000ft
5 to 8 km
1000 to 3000 ft
1500m to 5 km
500 to 1000 ft
800 to 1500m
200 to 500 ft
< 800m
< 200 ft
Symbols :   Thunderstorms  Fog  Heavy snow  Heavy precipitations  Wind > 20 kt






- Airport Elevation : 4237 ft


KENV - Wendover

CURRENT METAR :
  • 240456Z AUTO 02013KT 10SM CLR 18/03 A2992 RMK AO2 SLP104 T01780028

EXPIRED METARs :
  • 240356Z AUTO 04007KT 10SM CLR 18/03 A2992 RMK AO2 SLP104 T01780028
  • 240256Z AUTO 30006KT 10SM CLR 18/01 A2989 RMK AO2 SLP097 T01830006 55002
  • 240156Z AUTO 03006KT 10SM FEW110 20/00 A2989 RMK AO2 SLP096 T02000000
  • 240056Z AUTO 09006KT 10SM FEW120 22/M01 A2989 RMK AO2 SLP096 T02171006

TAF KENV
Valid from the 24 at 00:00 until the 25 at 00:00 UTC


232320Z 2400/2424 02007KT P6SM FEW150
FM240500 32004KT P6SM SCT150
FM241500 12006KT P6SM SCT150
KZLC FIR / North America



MET'MAP, your aeronautical weather chart ! - Copyright ORBIFLY December 2007 - Disclaimer

ORBIFLY MET'MAP TEAM :

Programming & Development : Alexandra Zaïnal
Original concept : Baudouin d'Aumeries
Technical & hardware support : Manuel Goepfert
Assistance : Marc-Olivier Méhu




SOURCES & CREDITS :

   NOAA       Earth
Advisory